createdAt,value
2017-12-01T00:00:16.480Z,7.17
2017-12-01T00:02:50.958Z,6.63
2017-12-01T00:05:25.399Z,7.90
2017-12-01T00:07:59.867Z,7.73
2017-12-01T00:10:34.254Z,7.40
2017-12-01T00:13:08.882Z,8.73
2017-12-01T00:15:43.284Z,10.03
2017-12-01T00:18:17.900Z,10.53
2017-12-01T00:20:52.350Z,9.40
2017-12-01T00:23:27.633Z,9.17
2017-12-01T00:26:02.226Z,9.67
2017-12-01T00:28:36.798Z,10.07
2017-12-01T00:31:11.211Z,6.43
2017-12-01T00:33:45.578Z,7.73
2017-12-01T00:36:20.097Z,7.00
2017-12-01T00:38:54.858Z,7.30
2017-12-01T00:41:29.239Z,7.17
2017-12-01T00:44:03.770Z,6.90
2017-12-01T00:46:38.154Z,7.70
2017-12-01T00:49:12.633Z,6.50
2017-12-01T00:51:47.161Z,7.13
2017-12-01T00:54:21.677Z,7.43
2017-12-01T00:56:56.035Z,7.67
2017-12-01T00:59:30.498Z,9.83
2017-12-01T01:02:04.842Z,9.90
2017-12-01T01:04:39.318Z,7.40
2017-12-01T01:07:13.691Z,8.40
2017-12-01T01:09:48.055Z,8.73
2017-12-01T01:12:22.453Z,8.67
2017-12-01T01:14:57.034Z,8.43
2017-12-01T01:17:31.430Z,9.23
2017-12-01T01:20:06.291Z,10.70
2017-12-01T01:22:40.322Z,9.23
2017-12-01T01:25:14.606Z,8.90
2017-12-01T01:27:49.152Z,10.70
2017-12-01T01:30:23.565Z,10.80
2017-12-01T01:32:58.602Z,9.20
2017-12-01T01:35:33.044Z,9.03
2017-12-01T01:38:07.562Z,9.10
2017-12-01T01:40:41.612Z,9.50
2017-12-01T01:43:15.762Z,10.27
2017-12-01T01:45:49.832Z,10.13
2017-12-01T01:48:24.032Z,9.10
2017-12-01T01:50:58.160Z,11.07
2017-12-01T01:53:32.861Z,11.87
2017-12-01T01:56:06.950Z,10.77
2017-12-01T01:58:41.213Z,9.53
2017-12-01T02:01:15.594Z,9.93
2017-12-01T02:03:50.002Z,10.27
2017-12-01T02:06:24.392Z,9.43
2017-12-01T02:08:58.565Z,11.70
2017-12-01T02:11:32.623Z,11.37
2017-12-01T02:14:06.683Z,9.27
2017-12-01T02:16:41.070Z,11.23
2017-12-01T02:19:15.150Z,10.53
2017-12-01T02:21:49.456Z,11.30
2017-12-01T02:24:23.562Z,9.63
2017-12-01T02:26:57.814Z,11.10
2017-12-01T02:29:31.882Z,10.13
2017-12-01T02:32:05.955Z,9.80
2017-12-01T02:34:40.225Z,10.77
2017-12-01T02:37:14.481Z,11.23
2017-12-01T02:39:48.761Z,9.17
2017-12-01T02:42:22.882Z,9.73
2017-12-01T02:44:56.994Z,10.30
2017-12-01T02:47:31.174Z,10.33
2017-12-01T02:50:06.012Z,10.37
2017-12-01T02:52:40.076Z,10.40
2017-12-01T02:55:14.148Z,11.53
2017-12-01T02:57:48.263Z,11.20
2017-12-01T03:00:22.486Z,10.80
2017-12-01T03:02:56.525Z,11.03
2017-12-01T03:05:30.702Z,11.40
2017-12-01T03:08:04.962Z,11.30
2017-12-01T03:10:39.111Z,12.60
2017-12-01T03:13:13.427Z,11.00
2017-12-01T03:15:47.389Z,12.47
2017-12-01T03:18:21.476Z,11.53
2017-12-01T03:20:55.752Z,12.17
2017-12-01T03:23:30.019Z,11.90
2017-12-01T03:26:04.194Z,11.60
2017-12-01T03:28:38.500Z,11.90
2017-12-01T03:31:12.714Z,12.70
2017-12-01T03:33:47.083Z,10.93
2017-12-01T03:36:21.241Z,13.23
2017-12-01T03:38:55.038Z,11.87
2017-12-01T03:41:29.137Z,13.07
2017-12-01T03:44:03.583Z,13.57
2017-12-01T03:46:37.758Z,14.30
2017-12-01T03:49:11.890Z,12.80
2017-12-01T03:51:46.095Z,13.10
2017-12-01T03:54:20.385Z,13.33
2017-12-01T03:56:54.658Z,12.67
2017-12-01T03:59:28.786Z,13.67
2017-12-01T04:02:02.733Z,13.03
2017-12-01T04:04:36.946Z,13.73
2017-12-01T04:07:11.030Z,13.77
2017-12-01T04:09:45.162Z,13.63
2017-12-01T04:12:19.264Z,13.27
2017-12-01T04:14:53.545Z,14.57
2017-12-01T04:17:27.784Z,14.03
2017-12-01T04:20:01.989Z,13.97
2017-12-01T04:22:36.086Z,13.40
2017-12-01T04:25:10.146Z,14.47
2017-12-01T04:27:44.210Z,14.50
2017-12-01T04:30:18.360Z,15.23
2017-12-01T04:32:52.871Z,13.17
2017-12-01T04:35:26.954Z,14.33
2017-12-01T04:38:01.126Z,14.57
2017-12-01T04:40:35.183Z,14.60
2017-12-01T04:43:09.405Z,15.73
2017-12-01T04:45:43.575Z,15.20
2017-12-01T04:48:17.843Z,15.87
2017-12-01T04:50:52.946Z,16.03
2017-12-01T04:53:27.082Z,16.77
2017-12-01T04:56:01.171Z,15.30
2017-12-01T04:58:35.417Z,14.83
2017-12-01T05:01:09.494Z,16.90
2017-12-01T05:03:43.747Z,16.47
2017-12-01T05:06:17.881Z,16.57
2017-12-01T05:08:52.699Z,15.63
2017-12-01T05:11:27.195Z,15.10
2017-12-01T05:14:01.354Z,15.47
2017-12-01T05:16:35.434Z,16.57
2017-12-01T05:19:09.606Z,15.13
2017-12-01T05:21:43.654Z,16.17
2017-12-01T05:24:17.743Z,16.80
2017-12-01T05:26:52.005Z,16.83
2017-12-01T05:29:26.067Z,17.50
2017-12-01T05:32:00.146Z,16.37
2017-12-01T05:34:34.315Z,17.37
2017-12-01T05:37:09.930Z,18.30
2017-12-01T05:39:44.239Z,17.57
2017-12-01T05:42:18.434Z,17.30
2017-12-01T05:44:52.377Z,17.37
2017-12-01T05:47:26.456Z,16.90
2017-12-01T05:50:00.658Z,15.90
2017-12-01T05:52:34.820Z,17.37
2017-12-01T05:55:10.611Z,16.77
2017-12-01T05:57:44.886Z,15.87
2017-12-01T06:00:18.922Z,17.70
2017-12-01T06:02:52.958Z,17.27
2017-12-01T06:05:27.087Z,18.10
2017-12-01T06:08:01.350Z,19.70
2017-12-01T06:10:35.510Z,21.33
2017-12-01T06:13:09.742Z,20.20
2017-12-01T06:15:43.583Z,18.37
2017-12-01T06:18:17.623Z,19.10
2017-12-01T06:20:51.775Z,16.60
2017-12-01T06:23:25.873Z,17.27
2017-12-01T06:25:59.962Z,18.00
2017-12-01T06:28:33.982Z,17.67
2017-12-01T06:31:08.251Z,16.80
2017-12-01T06:33:42.438Z,19.90
2017-12-01T06:36:16.582Z,19.30
2017-12-01T06:38:50.856Z,20.27
2017-12-01T06:41:25.449Z,19.57
2017-12-01T06:43:59.594Z,19.50
2017-12-01T06:46:34.002Z,21.03
2017-12-01T06:49:08.246Z,24.93
2017-12-01T06:51:42.286Z,24.10
2017-12-01T06:54:16.794Z,22.87
2017-12-01T06:56:50.911Z,22.07
2017-12-01T06:59:24.885Z,20.73
2017-12-01T07:01:59.322Z,20.67
2017-12-01T07:04:34.074Z,19.40
2017-12-01T07:07:07.990Z,18.40
2017-12-01T07:09:42.522Z,19.03
2017-12-01T07:12:16.773Z,17.67
2017-12-01T07:14:51.156Z,17.70
2017-12-01T07:17:25.510Z,15.27
2017-12-01T07:19:59.911Z,16.93
2017-12-01T07:22:35.458Z,17.07
2017-12-01T07:25:14.662Z,18.20
2017-12-01T07:27:49.254Z,16.77
2017-12-01T07:30:23.663Z,14.97
2017-12-01T07:32:58.050Z,16.50
2017-12-01T07:35:32.599Z,17.43
2017-12-01T07:38:06.991Z,16.83
2017-12-01T07:40:42.115Z,15.50
2017-12-01T07:43:16.546Z,15.50
2017-12-01T07:45:50.810Z,14.03
2017-12-01T07:48:25.095Z,15.73
2017-12-01T07:50:59.374Z,13.57
2017-12-01T07:53:33.795Z,14.00
2017-12-01T07:56:07.958Z,13.10
2017-12-01T07:58:42.282Z,16.80
2017-12-01T08:01:16.995Z,13.60
2017-12-01T08:03:52.066Z,13.67
2017-12-01T08:06:26.398Z,12.57
2017-12-01T08:09:00.830Z,14.37
2017-12-01T08:11:35.097Z,14.93
2017-12-01T08:14:09.498Z,14.80
2017-12-01T08:16:54.858Z,15.90
2017-12-01T08:19:29.094Z,16.70
2017-12-01T08:22:14.297Z,16.60
2017-12-01T08:24:59.710Z,14.27
2017-12-01T08:27:34.010Z,15.53
2017-12-01T08:30:14.875Z,16.00
2017-12-01T08:32:49.281Z,18.17
2017-12-01T08:35:23.771Z,15.03
2017-12-01T08:37:58.351Z,16.07
2017-12-01T08:40:32.395Z,14.93
2017-12-01T08:43:06.776Z,12.90
2017-12-01T08:45:41.163Z,14.20
2017-12-01T08:48:15.690Z,11.60
2017-12-01T08:50:50.202Z,11.90
2017-12-01T08:53:24.773Z,12.73
2017-12-01T08:55:59.220Z,14.50
2017-12-01T08:58:33.713Z,15.63
2017-12-01T09:01:07.878Z,14.67
2017-12-01T09:03:42.377Z,13.67
2017-12-01T09:06:16.442Z,13.70
2017-12-01T09:08:50.943Z,15.90
2017-12-01T09:11:25.452Z,15.37
2017-12-01T09:13:59.829Z,15.87
2017-12-01T09:16:34.858Z,12.87
2017-12-01T09:19:09.331Z,11.70
2017-12-01T09:21:44.026Z,11.07
2017-12-01T09:24:18.407Z,12.57
2017-12-01T09:26:52.634Z,12.00
2017-12-01T09:29:27.217Z,12.57
2017-12-01T09:32:01.694Z,11.47
2017-12-01T09:34:36.178Z,12.00
2017-12-01T09:37:11.114Z,12.70
2017-12-01T09:39:45.622Z,14.10
2017-12-01T09:42:19.822Z,15.70
2017-12-01T09:44:53.958Z,16.77
2017-12-01T09:47:28.384Z,15.60
2017-12-01T09:50:03.178Z,16.10
2017-12-01T09:52:37.619Z,15.20
2017-12-01T09:55:12.128Z,13.30
2017-12-01T09:57:46.248Z,13.83
2017-12-01T10:00:20.150Z,12.30
2017-12-01T10:02:54.527Z,15.27
2017-12-01T10:05:28.706Z,15.17
2017-12-01T10:08:02.887Z,12.40
2017-12-01T10:10:38.124Z,13.13
2017-12-01T10:13:12.644Z,10.40
2017-12-01T10:15:46.997Z,11.73
2017-12-01T10:18:21.646Z,10.80
2017-12-01T10:20:55.526Z,8.00
2017-12-01T10:23:29.915Z,9.00
2017-12-01T10:26:04.394Z,10.90
2017-12-01T10:28:38.834Z,11.17
2017-12-01T10:31:13.234Z,10.30
2017-12-01T10:33:47.819Z,10.17
2017-12-01T10:36:22.137Z,10.33
2017-12-01T10:38:56.755Z,10.17
2017-12-01T10:41:31.287Z,8.93
2017-12-01T10:44:06.411Z,9.47
2017-12-01T10:46:40.942Z,7.00
2017-12-01T10:49:15.454Z,9.20
2017-12-01T10:51:49.487Z,8.07
2017-12-01T10:54:23.854Z,8.20
2017-12-01T10:56:58.262Z,8.40
2017-12-01T10:59:32.328Z,9.10
2017-12-01T11:02:06.786Z,9.00
2017-12-01T11:04:41.377Z,8.60
2017-12-01T11:07:15.784Z,7.60
2017-12-01T11:09:50.278Z,7.10
2017-12-01T11:12:24.716Z,5.13
2017-12-01T11:14:59.074Z,5.70
2017-12-01T11:17:33.445Z,5.97
2017-12-01T11:20:09.266Z,6.53
2017-12-01T11:22:43.940Z,6.30
2017-12-01T11:25:18.318Z,7.03
2017-12-01T11:27:53.607Z,5.60
2017-12-01T11:30:28.801Z,7.30
2017-12-01T11:33:03.090Z,6.80
2017-12-01T11:35:37.542Z,5.60
2017-12-01T11:38:11.930Z,6.50
2017-12-01T11:40:46.394Z,5.43
2017-12-01T11:43:20.921Z,5.67
2017-12-01T11:45:55.366Z,6.90
2017-12-01T11:48:29.858Z,5.70
2017-12-01T11:51:04.540Z,7.37
2017-12-01T11:53:39.001Z,6.53
2017-12-01T11:56:13.406Z,8.70
2017-12-01T11:58:47.906Z,7.43
2017-12-01T12:01:21.752Z,6.77
2017-12-01T12:03:56.351Z,7.00
2017-12-01T12:06:30.452Z,7.00
2017-12-01T12:09:04.339Z,7.27
2017-12-01T12:11:38.410Z,8.00
2017-12-01T12:14:12.586Z,7.30
2017-12-01T12:16:47.176Z,6.53
2017-12-01T12:19:21.358Z,6.80
2017-12-01T12:21:55.765Z,6.13
2017-12-01T12:24:29.854Z,7.70
2017-12-01T12:27:04.601Z,7.40
2017-12-01T12:29:38.781Z,8.40
2017-12-01T12:32:13.128Z,7.33
2017-12-01T12:34:47.302Z,6.87
2017-12-01T12:37:21.358Z,7.07
2017-12-01T12:39:55.429Z,7.67
2017-12-01T12:42:29.579Z,7.93
2017-12-01T12:45:09.671Z,6.87
2017-12-01T12:47:43.778Z,7.23
2017-12-01T12:50:18.210Z,8.83
2017-12-01T12:52:52.581Z,9.53
2017-12-01T12:55:26.970Z,9.17
2017-12-01T12:58:00.998Z,8.60
2017-12-01T13:00:34.771Z,7.53
2017-12-01T13:03:08.951Z,8.00
2017-12-01T13:05:43.018Z,7.47
2017-12-01T13:08:17.228Z,7.47
2017-12-01T13:10:52.163Z,9.20
2017-12-01T13:13:26.454Z,9.40
2017-12-01T13:16:00.357Z,9.43
2017-12-01T13:18:34.430Z,7.77
2017-12-01T13:21:08.610Z,8.37
2017-12-01T13:23:42.814Z,8.63
2017-12-01T13:26:19.271Z,10.13
2017-12-01T13:28:53.398Z,9.20
2017-12-01T13:31:28.191Z,8.70
2017-12-01T13:34:02.438Z,10.50
2017-12-01T13:36:36.875Z,9.93
2017-12-01T13:39:11.014Z,9.60
2017-12-01T13:41:45.082Z,9.27
2017-12-01T13:44:19.170Z,10.83
2017-12-01T13:46:53.609Z,10.70
2017-12-01T13:49:27.756Z,11.80
2017-12-01T13:52:04.693Z,15.03
2017-12-01T13:54:39.887Z,13.00
2017-12-01T13:57:14.406Z,13.10
2017-12-01T13:59:48.847Z,10.80
2017-12-01T14:02:22.779Z,11.77
2017-12-01T14:04:57.698Z,9.90
2017-12-01T14:07:31.898Z,10.30
2017-12-01T14:10:12.138Z,9.27
2017-12-01T14:12:46.704Z,8.90
2017-12-01T14:15:21.171Z,11.83
2017-12-01T14:17:55.813Z,10.60
2017-12-01T14:20:30.222Z,10.63
2017-12-01T14:23:04.710Z,11.37
2017-12-01T14:25:39.346Z,10.00
2017-12-01T14:28:13.866Z,11.53
2017-12-01T14:30:48.334Z,11.27
2017-12-01T14:33:22.810Z,12.83
2017-12-01T14:35:57.936Z,14.77
2017-12-01T14:38:32.554Z,16.00
2017-12-01T14:41:06.990Z,14.47
2017-12-01T14:43:41.903Z,13.67
2017-12-01T14:46:16.322Z,15.00
2017-12-01T14:48:50.942Z,14.10
2017-12-01T14:51:26.004Z,13.40
2017-12-01T14:54:00.710Z,15.43
2017-12-01T14:56:35.106Z,13.83
2017-12-01T14:59:09.630Z,16.23
2017-12-01T15:01:43.982Z,15.43
2017-12-01T15:04:18.575Z,17.17
2017-12-01T15:06:53.513Z,17.30
2017-12-01T15:09:28.046Z,15.60
2017-12-01T15:12:03.918Z,17.27
2017-12-01T15:14:39.321Z,17.87
2017-12-01T15:17:13.865Z,14.87
2017-12-01T15:19:48.279Z,15.07
2017-12-01T15:22:24.039Z,16.20
2017-12-01T15:25:00.450Z,16.40
2017-12-01T15:27:37.946Z,15.70
2017-12-01T15:30:12.376Z,15.07
2017-12-01T15:32:49.422Z,13.23
2017-12-01T15:35:23.947Z,15.03
2017-12-01T15:37:58.441Z,15.30
2017-12-01T15:40:32.638Z,15.50
2017-12-01T15:43:06.910Z,17.77
2017-12-01T15:45:40.958Z,16.90
2017-12-01T15:48:15.349Z,16.40
2017-12-01T15:50:49.919Z,15.37
2017-12-01T15:53:24.527Z,18.13
2017-12-01T15:55:58.774Z,15.10
2017-12-01T15:58:40.930Z,16.83
2017-12-01T16:01:15.148Z,16.83
2017-12-01T16:03:49.264Z,15.37
2017-12-01T16:06:23.419Z,17.03
2017-12-01T16:08:57.681Z,17.40
2017-12-01T16:11:31.735Z,17.27
2017-12-01T16:14:09.438Z,18.10
2017-12-01T16:16:43.962Z,17.40
2017-12-01T16:19:18.073Z,16.87
2017-12-01T16:21:52.106Z,16.57
2017-12-01T16:24:26.206Z,18.40
2017-12-01T16:27:00.273Z,18.13
2017-12-01T16:29:35.402Z,17.57
2017-12-01T16:32:09.793Z,18.73
2017-12-01T16:34:44.342Z,17.03
2017-12-01T16:37:18.754Z,18.10
2017-12-01T16:39:53.297Z,20.43
2017-12-01T16:42:27.361Z,16.90
2017-12-01T16:45:01.862Z,18.50
2017-12-01T16:47:36.247Z,19.30
2017-12-01T16:50:15.451Z,20.00
2017-12-01T16:52:49.622Z,20.23
2017-12-01T16:55:23.708Z,19.37
2017-12-01T16:57:58.304Z,21.83
2017-12-01T17:00:32.772Z,19.87
2017-12-01T17:03:06.878Z,20.10
2017-12-01T17:05:41.063Z,19.07
2017-12-01T17:08:15.395Z,19.90
2017-12-01T17:10:49.553Z,20.37
2017-12-01T17:13:23.743Z,17.03
2017-12-01T17:15:59.204Z,19.10
2017-12-01T17:18:33.258Z,19.73
2017-12-01T17:21:07.446Z,21.40
2017-12-01T17:23:41.602Z,21.57
2017-12-01T17:26:17.074Z,19.57
2017-12-01T17:28:51.361Z,18.23
2017-12-01T17:31:27.098Z,17.57
2017-12-01T17:34:01.342Z,17.90
2017-12-01T17:36:35.410Z,17.87
2017-12-01T17:39:12.474Z,18.00
2017-12-01T17:41:52.762Z,29.33
2017-12-01T17:44:27.355Z,24.30
2017-12-01T17:47:02.030Z,20.50
2017-12-01T17:49:36.186Z,20.40
2017-12-01T17:52:10.199Z,20.53
2017-12-01T17:54:44.508Z,21.37
2017-12-01T17:57:18.663Z,21.03
2017-12-01T17:59:53.330Z,21.90
2017-12-01T18:02:27.594Z,23.40
2017-12-01T18:05:02.111Z,26.30
2017-12-01T18:07:36.162Z,25.63
2017-12-01T18:10:10.194Z,27.20
2017-12-01T18:12:44.426Z,87.57
2017-12-01T18:15:18.462Z,27.90
2017-12-01T18:17:52.754Z,25.17
2017-12-01T18:20:26.853Z,26.60
2017-12-01T18:23:01.287Z,28.43
2017-12-01T18:25:35.442Z,25.10
2017-12-01T18:28:09.608Z,27.37
2017-12-01T18:30:43.646Z,25.70
2017-12-01T18:33:17.877Z,25.60
2017-12-01T18:35:52.305Z,27.13
2017-12-01T18:38:26.560Z,27.83
2017-12-01T18:41:00.946Z,26.73
2017-12-01T18:43:35.113Z,33.43
2017-12-01T18:46:09.485Z,23.93
2017-12-01T18:48:43.990Z,27.03
2017-12-01T18:51:18.125Z,25.07
2017-12-01T18:53:52.382Z,24.60
2017-12-01T18:56:26.579Z,27.20
2017-12-01T18:59:00.674Z,27.27
2017-12-01T19:01:35.179Z,26.60
2017-12-01T19:04:09.798Z,24.03
2017-12-01T19:06:44.153Z,25.17
2017-12-01T19:09:18.353Z,27.70
2017-12-01T19:11:52.929Z,27.23
2017-12-01T19:14:27.371Z,26.30
2017-12-01T19:17:02.392Z,25.77
2017-12-01T19:19:36.591Z,27.10
2017-12-01T19:22:12.377Z,25.57
2017-12-01T19:24:46.438Z,27.10
2017-12-01T19:27:20.651Z,29.40
2017-12-01T19:29:55.092Z,26.70
2017-12-01T19:32:29.342Z,25.77
2017-12-01T19:35:03.576Z,23.50
2017-12-01T19:37:38.366Z,24.07
2017-12-01T19:40:12.841Z,23.57
2017-12-01T19:42:47.087Z,22.70
2017-12-01T19:45:21.211Z,24.70
2017-12-01T19:47:55.771Z,24.30
2017-12-01T19:50:33.971Z,23.83
2017-12-01T19:53:08.553Z,25.00
2017-12-01T19:55:46.083Z,24.53
2017-12-01T19:58:20.293Z,23.57
2017-12-01T20:00:55.313Z,23.73
2017-12-01T20:03:29.811Z,20.47
2017-12-01T20:06:07.979Z,20.37
2017-12-01T20:08:43.487Z,21.50
2017-12-01T20:11:17.532Z,19.87
2017-12-01T20:13:52.154Z,22.20
2017-12-01T20:16:26.088Z,21.47
2017-12-01T20:19:00.182Z,20.20
2017-12-01T20:21:34.353Z,20.90
2017-12-01T20:24:08.997Z,22.67
2017-12-01T20:26:43.209Z,25.00
2017-12-01T20:29:17.882Z,24.47
2017-12-01T20:31:52.705Z,26.73
2017-12-01T20:34:28.092Z,23.70
2017-12-01T20:37:02.410Z,24.87
2017-12-01T20:39:36.648Z,26.23
2017-12-01T20:42:10.641Z,24.43
2017-12-01T20:44:46.893Z,25.20
2017-12-01T20:47:25.479Z,24.87
2017-12-01T20:49:59.708Z,24.60
2017-12-01T20:52:33.985Z,25.10
2017-12-01T20:55:08.790Z,23.73
2017-12-01T20:57:42.923Z,24.77
2017-12-01T21:00:16.963Z,22.10
2017-12-01T21:02:51.457Z,22.20
2017-12-01T21:05:26.624Z,23.60
2017-12-01T21:08:00.892Z,23.40
2017-12-01T21:10:36.101Z,21.00
2017-12-01T21:13:10.863Z,23.00
2017-12-01T21:15:45.132Z,22.63
2017-12-01T21:18:19.174Z,25.30
2017-12-01T21:20:53.569Z,25.97
2017-12-01T21:23:28.104Z,23.53
2017-12-01T21:26:03.854Z,21.87
2017-12-01T21:28:38.550Z,24.67
2017-12-01T21:31:12.775Z,20.37
2017-12-01T21:33:46.831Z,22.93
2017-12-01T21:36:24.719Z,23.40
2017-12-01T21:38:59.518Z,21.40
2017-12-01T21:41:34.613Z,23.33
2017-12-01T21:44:09.046Z,22.03
2017-12-01T21:46:46.510Z,23.47
2017-12-01T21:49:22.124Z,24.13
2017-12-01T21:51:59.022Z,22.70
2017-12-01T21:54:34.435Z,25.10
2017-12-01T21:57:09.045Z,22.53
2017-12-01T21:59:48.348Z,24.70
2017-12-01T22:02:22.860Z,23.93
2017-12-01T22:04:58.108Z,22.27
2017-12-01T22:07:32.951Z,23.10
2017-12-01T22:10:07.529Z,21.93
2017-12-01T22:12:42.073Z,21.80
2017-12-01T22:15:21.023Z,20.97
2017-12-01T22:17:55.421Z,20.60
2017-12-01T22:20:29.578Z,23.80
2017-12-01T22:23:03.627Z,20.93
2017-12-01T22:25:39.000Z,23.57
2017-12-01T22:28:13.466Z,20.93
2017-12-01T22:30:47.855Z,21.80
2017-12-01T22:33:23.197Z,22.30
2017-12-01T22:35:57.774Z,20.27
2017-12-01T22:38:32.214Z,21.63
2017-12-01T22:41:06.571Z,20.57
2017-12-01T22:43:40.931Z,20.83
2017-12-01T22:46:15.920Z,21.53
2017-12-01T22:48:50.518Z,19.37
2017-12-01T22:51:24.881Z,21.57
2017-12-01T22:53:59.353Z,22.47
2017-12-01T22:56:34.020Z,22.00
2017-12-01T22:59:08.387Z,23.83
2017-12-01T23:01:42.834Z,23.63
2017-12-01T23:04:17.794Z,22.23
2017-12-01T23:06:52.380Z,21.10
2017-12-01T23:09:27.030Z,22.33
2017-12-01T23:12:01.498Z,21.60
2017-12-01T23:14:35.878Z,21.53
2017-12-01T23:17:10.335Z,23.07
2017-12-01T23:19:44.994Z,24.30
2017-12-01T23:22:19.355Z,23.63
2017-12-01T23:24:53.787Z,20.30
2017-12-01T23:27:28.094Z,22.17
2017-12-01T23:30:02.799Z,19.53
2017-12-01T23:32:37.975Z,20.47
2017-12-01T23:35:13.162Z,20.43
2017-12-01T23:37:47.775Z,21.07
2017-12-01T23:40:22.895Z,20.90
2017-12-01T23:42:57.457Z,22.17
2017-12-01T23:45:32.118Z,21.30
2017-12-01T23:48:06.626Z,21.07
2017-12-01T23:50:40.990Z,22.97
2017-12-01T23:53:15.770Z,19.40
2017-12-01T23:55:49.922Z,20.30
2017-12-01T23:58:24.276Z,18.87
